Time;durP1;ratioP1;P1;durP2;ratioP2;P2;SDS_P1;SDS_P2;PMS_P1;PMS_P2;Temp;Humidity;BMP_temperature;BMP_pressure;BME280_temperature;BME280_humidity;BME280_pressure;Samples;Min_cycle;Max_cycle;Signal;HPM_P1;HPM_P2
2022/01/10 00:01:44;;;;;;;2.13;0.85;;;18.70;46.00;;;;;;5032799;28;20045;-52
2022/01/10 00:04:11;;;;;;;0.70;0.40;;;18.70;46.00;;;;;;5032190;28;20049;-55
2022/01/10 00:06:38;;;;;;;2.85;1.25;;;18.70;46.00;;;;;;5037088;28;20038;-50
2022/01/10 00:09:05;;;;;;;1.67;0.75;;;18.70;46.00;;;;;;5042573;28;20041;-53
2022/01/10 00:11:33;;;;;;;2.17;0.80;;;18.70;45.90;;;;;;5044115;28;20041;-51
2022/01/10 00:14:00;;;;;;;1.98;1.52;;;18.70;45.90;;;;;;5030630;28;20068;-54
2022/01/10 00:16:27;;;;;;;1.15;0.93;;;18.70;45.90;;;;;;5031129;28;20060;-55
2022/01/10 00:18:54;;;;;;;3.72;0.95;;;18.70;45.90;;;;;;5037692;28;20045;-55
2022/01/10 00:21:21;;;;;;;2.38;0.95;;;18.70;45.90;;;;;;5033645;28;20524;-52
2022/01/10 00:23:48;;;;;;;2.50;1.65;;;18.70;45.90;;;;;;5030922;28;20041;-48
2022/01/10 00:26:15;;;;;;;2.47;1.25;;;18.70;46.00;;;;;;5029666;28;20044;-53
2022/01/10 00:28:43;;;;;;;3.15;1.25;;;18.70;45.90;;;;;;5036999;28;20049;-50
2022/01/10 00:31:11;;;;;;;2.53;1.20;;;18.70;45.90;;;;;;5034079;28;20705;-49
2022/01/10 00:33:38;;;;;;;1.08;0.98;;;18.70;45.90;;;;;;5030265;28;20049;-49
2022/01/10 00:36:05;;;;;;;2.05;1.38;;;18.70;45.90;;;;;;5034200;28;20463;-55
2022/01/10 00:38:33;;;;;;;1.95;1.20;;;18.70;45.90;;;;;;5034376;28;20100;-52
2022/01/10 00:41:00;;;;;;;1.30;1.20;;;18.70;45.90;;;;;;5043192;28;20099;-50
2022/01/10 00:43:32;;;;;;;1.98;1.42;;;18.70;45.90;;;;;;5032605;28;20132;-52
2022/01/10 00:46:02;;;;;;;1.55;1.13;;;18.70;45.90;;;;;;5039208;28;20426;-53
2022/01/10 00:48:30;;;;;;;1.90;1.42;;;18.70;45.90;;;;;;5035021;28;20056;-52
2022/01/10 00:50:57;;;;;;;1.83;0.68;;;18.70;45.90;;;;;;5035158;28;20160;-53
2022/01/10 00:53:25;;;;;;;3.70;1.30;;;18.70;45.90;;;;;;5033184;28;20581;-50
2022/01/10 00:55:52;;;;;;;1.30;0.85;;;18.70;45.90;;;;;;5036083;28;20106;-51
2022/01/10 00:58:19;;;;;;;3.20;1.27;;;18.70;45.90;;;;;;5035276;28;20045;-54
2022/01/10 01:00:46;;;;;;;1.35;0.90;;;18.70;45.90;;;;;;5036141;28;20684;-49
2022/01/10 01:03:15;;;;;;;1.48;1.10;;;18.70;45.90;;;;;;5036448;28;20047;-51
2022/01/10 01:05:43;;;;;;;2.08;0.73;;;18.70;45.90;;;;;;5044045;28;20045;-50
2022/01/10 01:08:12;;;;;;;0.88;0.63;;;18.70;45.90;;;;;;5031238;28;20101;-51
2022/01/10 01:13:38;;;;;;;2.80;0.55;;;18.80;46.00;;;;;;5046991;28;20049;-51
2022/01/10 01:16:15;;;;;;;1.05;0.63;;;18.70;45.90;;;;;;5036790;28;20037;-49
2022/01/10 01:24:24;;;;;;;1.83;0.80;;;18.70;45.90;;;;;;5058149;28;20040;-47
2022/01/10 01:26:53;;;;;;;1.65;0.68;;;18.70;46.00;;;;;;5062347;28;20037;-50
2022/01/10 01:29:22;;;;;;;1.10;1.00;;;18.70;46.00;;;;;;5062838;28;20033;-53
2022/01/10 01:31:49;;;;;;;0.95;0.50;;;18.70;46.00;;;;;;5061597;28;20047;-51
2022/01/10 01:34:17;;;;;;;2.05;0.35;;;18.70;45.90;;;;;;5061391;28;20048;-48
2022/01/10 01:36:50;;;;;;;2.88;0.60;;;18.70;45.90;;;;;;5061968;28;20516;-48
2022/01/10 01:39:20;;;;;;;1.10;0.55;;;18.70;46.50;;;;;;5060185;28;20040;-49
2022/01/10 01:41:56;;;;;;;2.03;0.80;;;18.70;46.00;;;;;;5060710;28;20037;-47
2022/01/10 01:44:24;;;;;;;2.00;0.50;;;18.70;45.90;;;;;;5061261;28;20422;-46
2022/01/10 01:46:51;;;;;;;1.73;0.95;;;18.70;45.90;;;;;;5062102;28;20528;-50
2022/01/10 01:49:18;;;;;;;1.83;0.70;;;18.70;45.90;;;;;;5062841;28;20041;-48
2022/01/10 01:51:46;;;;;;;1.50;0.80;;;18.70;45.90;;;;;;5057920;28;20064;-46
2022/01/10 01:54:14;;;;;;;0.77;0.77;;;18.80;46.00;;;;;;5060225;28;20037;-49
2022/01/10 01:56:41;;;;;;;1.48;0.35;;;18.70;45.90;;;;;;5060519;28;20041;-49
2022/01/10 01:59:10;;;;;;;2.15;0.43;;;18.70;45.90;;;;;;5060560;28;20037;-49
2022/01/10 02:01:37;;;;;;;1.00;0.60;;;18.70;45.90;;;;;;5059911;28;20044;-47
2022/01/10 02:04:05;;;;;;;1.25;0.57;;;18.70;45.90;;;;;;5059571;28;20567;-48
2022/01/10 02:06:32;;;;;;;2.72;0.70;;;18.80;46.00;;;;;;5059976;28;20063;-51
2022/01/10 02:09:02;;;;;;;2.35;0.52;;;18.80;46.00;;;;;;5061605;28;20041;-48
2022/01/10 02:11:29;;;;;;;0.55;0.43;;;18.80;46.00;;;;;;5060159;28;20127;-49
2022/01/10 02:13:57;;;;;;;5.07;0.77;;;18.70;45.90;;;;;;5060489;28;20041;-49
2022/01/10 02:16:40;;;;;;;2.83;0.75;;;18.70;45.90;;;;;;5059515;28;20135;-49
2022/01/10 02:19:10;;;;;;;2.90;1.20;;;18.80;46.00;;;;;;5059933;28;20091;-49
2022/01/10 02:21:39;;;;;;;1.20;0.63;;;18.70;45.90;;;;;;5059733;28;20049;-51
2022/01/10 02:24:07;;;;;;;1.20;0.40;;;18.80;46.00;;;;;;5059355;28;20039;-50
2022/01/10 02:26:37;;;;;;;2.83;0.40;;;18.80;46.00;;;;;;5057788;28;20076;-51
2022/01/10 02:29:04;;;;;;;1.80;0.55;;;18.80;46.00;;;;;;5061096;28;20147;-49
2022/01/10 02:31:35;;;;;;;0.95;0.60;;;18.70;45.90;;;;;;5057362;28;20055;-51
2022/01/10 02:34:02;;;;;;;1.42;0.43;;;18.80;46.00;;;;;;5046181;28;20076;-49
2022/01/10 02:36:29;;;;;;;1.05;0.47;;;18.70;45.90;;;;;;5057154;28;20049;-49
2022/01/10 02:39:00;;;;;;;0.50;0.40;;;18.80;45.90;;;;;;5039822;28;20056;-46
2022/01/10 02:41:31;;;;;;;0.28;0.22;;;18.80;46.00;;;;;;5054543;28;20768;-47
2022/01/10 02:44:02;;;;;;;2.58;1.23;;;18.80;46.00;;;;;;5046925;28;20045;-48
2022/01/10 02:46:34;;;;;;;0.65;0.20;;;18.80;46.00;;;;;;5062559;28;20394;-46
2022/01/10 02:49:07;;;;;;;1.05;0.22;;;18.80;46.00;;;;;;5046077;28;20136;-53
2022/01/10 02:51:34;;;;;;;1.48;0.50;;;18.70;45.90;;;;;;5046974;28;20049;-47
2022/01/10 02:54:03;;;;;;;1.13;0.52;;;18.70;45.90;;;;;;5044972;28;20127;-47
2022/01/10 02:56:30;;;;;;;1.60;0.20;;;18.80;46.00;;;;;;5053033;28;20132;-48
2022/01/10 02:58:57;;;;;;;0.35;0.35;;;18.70;45.90;;;;;;5071791;28;20048;-53
2022/01/10 03:01:24;;;;;;;1.23;0.47;;;18.80;46.00;;;;;;5088059;28;20048;-53
2022/01/10 03:03:51;;;;;;;0.65;0.30;;;18.80;46.60;;;;;;5074528;28;20530;-52
2022/01/10 03:06:18;;;;;;;0.32;0.30;;;18.70;45.90;;;;;;5056933;28;20071;-52
2022/01/10 03:08:45;;;;;;;1.17;0.40;;;18.70;45.90;;;;;;5087422;28;20500;-49
2022/01/10 03:11:14;;;;;;;0.95;0.50;;;18.80;45.90;;;;;;5073367;28;20068;-51
2022/01/10 03:13:41;;;;;;;1.65;0.57;;;18.80;45.90;;;;;;5089142;28;20055;-52
2022/01/10 03:16:08;;;;;;;1.60;0.50;;;18.80;45.90;;;;;;5053820;28;20043;-49
2022/01/10 03:18:35;;;;;;;2.00;1.35;;;18.70;45.90;;;;;;5071268;28;20036;-50
2022/01/10 03:21:02;;;;;;;0.88;0.40;;;18.70;45.90;;;;;;5071401;28;20439;-48
2022/01/10 03:23:29;;;;;;;0.55;0.30;;;18.70;45.90;;;;;;5069014;28;20067;-52
2022/01/10 03:25:56;;;;;;;1.25;0.28;;;18.80;46.00;;;;;;5072006;28;20412;-50
2022/01/10 03:28:24;;;;;;;0.73;0.50;;;18.80;45.90;;;;;;5088397;28;20044;-52
2022/01/10 03:30:51;;;;;;;0.70;0.30;;;18.70;45.90;;;;;;5073860;28;20302;-51
2022/01/10 03:33:20;;;;;;;3.30;1.15;;;18.80;45.90;;;;;;5069370;28;20104;-50
2022/01/10 03:35:49;;;;;;;1.00;0.30;;;18.70;45.90;;;;;;5069881;28;20711;-54
2022/01/10 03:38:18;;;;;;;0.65;0.52;;;18.70;45.90;;;;;;5053003;28;20039;-47
2022/01/10 03:40:45;;;;;;;1.48;0.47;;;18.70;45.90;;;;;;5087142;28;20047;-52
2022/01/10 03:43:17;;;;;;;0.43;0.38;;;18.70;45.90;;;;;;5071840;28;20123;-51
2022/01/10 03:45:46;;;;;;;0.60;0.10;;;18.70;45.90;;;;;;5073897;28;20044;-51
2022/01/10 03:48:15;;;;;;;1.77;0.50;;;18.80;45.90;;;;;;5071928;28;20122;-52
2022/01/10 03:50:43;;;;;;;0.57;0.32;;;18.70;45.90;;;;;;5067915;28;20044;-51
2022/01/10 03:53:11;;;;;;;0.75;0.45;;;18.80;46.00;;;;;;5072246;28;20038;-50
2022/01/10 03:55:39;;;;;;;0.20;0.20;;;18.70;45.90;;;;;;5063160;28;20120;-51
2022/01/10 03:58:07;;;;;;;3.80;0.90;;;18.80;46.00;;;;;;5072454;28;20054;-49
2022/01/10 04:00:34;;;;;;;0.50;0.20;;;18.70;45.90;;;;;;5070409;28;20063;-51
2022/01/10 04:03:06;;;;;;;1.48;0.50;;;18.70;45.90;;;;;;5085945;28;20043;-50
2022/01/10 04:05:39;;;;;;;1.75;1.02;;;18.80;46.00;;;;;;5070621;28;20143;-51
2022/01/10 04:08:06;;;;;;;1.48;0.60;;;18.70;45.90;;;;;;5086071;28;20089;-52
2022/01/10 04:10:33;;;;;;;0.65;0.30;;;18.70;45.90;;;;;;5087410;28;20059;-52
2022/01/10 04:13:00;;;;;;;1.42;0.30;;;18.70;45.90;;;;;;5086247;28;20043;-50
2022/01/10 04:15:28;;;;;;;0.65;0.30;;;18.70;45.90;;;;;;5072269;28;20567;-47
2022/01/10 04:17:57;;;;;;;0.60;0.30;;;18.70;45.90;;;;;;5066882;28;20089;-49
2022/01/10 04:20:25;;;;;;;0.75;0.43;;;18.70;45.90;;;;;;5066728;28;20117;-51
2022/01/10 04:22:54;;;;;;;0.75;0.55;;;18.70;45.90;;;;;;5067395;28;20490;-52
2022/01/10 04:25:22;;;;;;;1.48;0.40;;;18.70;45.90;;;;;;5071367;28;20040;-51
2022/01/10 04:27:50;;;;;;;0.65;0.55;;;18.70;46.00;;;;;;5074272;28;20048;-49
2022/01/10 04:30:25;;;;;;;2.00;0.70;;;18.70;45.90;;;;;;5071769;28;20698;-51
2022/01/10 04:32:52;;;;;;;1.05;0.80;;;18.70;46.50;;;;;;5067081;28;20054;-50
2022/01/10 04:35:19;;;;;;;0.88;0.73;;;18.70;45.90;;;;;;5085671;28;20089;-50
2022/01/10 04:37:48;;;;;;;0.52;0.30;;;18.70;45.90;;;;;;5087744;28;20046;-49
2022/01/10 04:40:15;;;;;;;0.80;0.80;;;18.70;45.90;;;;;;5072422;28;20084;-52
2022/01/10 04:42:43;;;;;;;1.95;0.65;;;18.70;45.90;;;;;;5062550;28;20129;-52
2022/01/10 04:45:11;;;;;;;2.75;0.93;;;18.70;45.90;;;;;;5069558;28;20617;-49
2022/01/10 04:47:39;;;;;;;1.85;0.50;;;18.70;45.90;;;;;;5068581;28;20044;-50
2022/01/10 04:50:33;;;;;;;0.65;0.43;;;18.70;45.90;;;;;;5068162;28;20052;-52
2022/01/10 04:53:02;;;;;;;1.13;0.60;;;18.70;45.90;;;;;;5087406;28;20040;-52
2022/01/10 04:55:29;;;;;;;1.25;0.60;;;18.70;45.90;;;;;;5071000;28;20079;-46
2022/01/10 04:57:56;;;;;;;0.82;0.60;;;18.70;45.90;;;;;;5084696;28;20036;-50
2022/01/10 05:00:25;;;;;;;1.52;0.63;;;18.70;45.90;;;;;;5051213;28;20496;-51
2022/01/10 05:02:53;;;;;;;1.40;0.50;;;18.70;45.90;;;;;;5086568;28;20060;-49
2022/01/10 05:05:21;;;;;;;1.67;0.63;;;18.70;45.90;;;;;;5072197;28;20032;-53
2022/01/10 05:07:48;;;;;;;1.35;0.52;;;18.70;45.90;;;;;;5086181;28;20046;-49
2022/01/10 05:10:17;;;;;;;1.63;0.70;;;18.70;45.90;;;;;;5071322;28;20123;-51
2022/01/10 05:12:45;;;;;;;0.75;0.50;;;18.70;45.90;;;;;;5070494;28;20044;-51
2022/01/10 05:15:13;;;;;;;1.00;0.90;;;18.70;45.90;;;;;;5065991;28;20569;-49
2022/01/10 05:17:40;;;;;;;1.17;0.70;;;18.70;45.90;;;;;;5066649;28;20143;-52
2022/01/10 05:20:09;;;;;;;1.77;0.57;;;18.70;45.90;;;;;;5071000;28;20545;-50
2022/01/10 05:22:36;;;;;;;0.63;0.60;;;18.70;45.90;;;;;;5068022;28;20052;-47
2022/01/10 05:25:05;;;;;;;0.70;0.55;;;18.70;45.90;;;;;;5084592;28;20523;-54
2022/01/10 05:27:34;;;;;;;1.17;0.60;;;18.70;45.90;;;;;;5069219;28;20052;-53
2022/01/10 05:30:06;;;;;;;0.40;0.40;;;18.70;45.90;;;;;;5069116;28;20059;-52
2022/01/10 05:32:33;;;;;;;1.83;0.60;;;18.70;45.90;;;;;;5066222;28;20048;-51
2022/01/10 05:35:12;;;;;;;0.73;0.73;;;18.70;45.90;;;;;;5071306;28;20036;-53
2022/01/10 05:37:39;;;;;;;1.10;0.70;;;18.70;45.90;;;;;;5073005;28;20071;-48
2022/01/10 05:40:08;;;;;;;1.85;1.67;;;18.70;45.90;;;;;;5084519;28;20051;-53
2022/01/10 05:42:37;;;;;;;2.50;1.10;;;18.70;45.90;;;;;;5084332;28;20048;-46
2022/01/10 05:45:04;;;;;;;1.42;0.70;;;18.70;45.90;;;;;;5069154;28;20375;-50
2022/01/10 05:47:34;;;;;;;1.85;0.98;;;18.70;45.90;;;;;;5067781;28;20055;-49
2022/01/10 05:50:03;;;;;;;1.10;0.85;;;18.70;45.90;;;;;;5068183;28;20048;-47
2022/01/10 05:52:36;;;;;;;2.85;1.10;;;18.70;45.90;;;;;;5087037;28;20044;-50
2022/01/10 05:55:03;;;;;;;2.15;1.00;;;18.70;45.90;;;;;;5084250;28;20521;-49
2022/01/10 05:57:31;;;;;;;0.95;0.77;;;18.70;45.90;;;;;;5070567;28;20056;-52
2022/01/10 05:59:59;;;;;;;1.13;0.93;;;18.70;46.50;;;;;;5067360;28;20614;-51
2022/01/10 06:02:26;;;;;;;1.15;0.73;;;18.70;45.90;;;;;;5068410;28;20070;-52
2022/01/10 06:04:54;;;;;;;1.58;1.48;;;18.70;45.90;;;;;;5072689;28;20052;-51
2022/01/10 06:07:31;;;;;;;2.85;1.38;;;18.70;45.90;;;;;;5059169;28;20056;-49
2022/01/10 06:09:59;;;;;;;1.85;0.90;;;18.70;45.90;;;;;;5070006;28;20043;-49
2022/01/10 06:12:26;;;;;;;0.70;0.55;;;18.70;45.90;;;;;;5071530;28;20447;-52
2022/01/10 06:14:53;;;;;;;2.03;0.95;;;18.70;45.90;;;;;;5072126;28;20040;-49
2022/01/10 06:17:22;;;;;;;2.55;1.92;;;18.70;45.90;;;;;;5070002;28;20036;-50
2022/01/10 06:19:49;;;;;;;1.00;0.90;;;18.70;45.90;;;;;;5089000;28;20046;-53
2022/01/10 06:22:16;;;;;;;1.35;0.65;;;18.60;45.90;;;;;;5093617;28;20048;-51
2022/01/10 06:24:44;;;;;;;0.57;0.50;;;18.70;45.90;;;;;;5073332;28;20055;-52
2022/01/10 06:27:11;;;;;;;1.00;0.90;;;18.70;45.90;;;;;;5068326;28;20050;-49
2022/01/10 06:29:39;;;;;;;1.95;1.05;;;18.70;45.90;;;;;;5070983;28;20042;-49
2022/01/10 06:32:07;;;;;;;1.13;1.02;;;18.70;45.90;;;;;;5069610;28;20044;-50
2022/01/10 06:34:35;;;;;;;1.83;0.73;;;18.60;45.90;;;;;;5073816;28;20485;-52
2022/01/10 06:37:03;;;;;;;1.00;0.93;;;18.60;45.90;;;;;;5074444;28;20040;-51
2022/01/10 06:39:35;;;;;;;1.58;1.15;;;18.60;45.90;;;;;;5070787;28;20425;-54
2022/01/10 06:42:03;;;;;;;1.63;0.98;;;18.60;45.90;;;;;;5068855;28;20485;-51
2022/01/10 06:44:30;;;;;;;1.35;1.10;;;18.60;45.90;;;;;;5069515;28;20036;-54
2022/01/10 06:46:58;;;;;;;3.45;0.90;;;18.70;45.90;;;;;;5074820;28;20040;-47
2022/01/10 06:49:25;;;;;;;3.50;1.35;;;18.70;45.90;;;;;;5088628;28;20044;-50
2022/01/10 06:51:53;;;;;;;2.17;1.52;;;18.60;45.90;;;;;;5072843;28;20044;-51
2022/01/10 06:54:21;;;;;;;4.05;1.85;;;18.60;45.90;;;;;;5087241;28;20046;-52
2022/01/10 06:56:49;;;;;;;0.88;0.63;;;18.60;45.90;;;;;;5070683;28;20036;-48
2022/01/10 06:59:16;;;;;;;2.83;1.75;;;18.60;45.90;;;;;;5068410;28;20788;-52
2022/01/10 07:01:46;;;;;;;1.73;1.42;;;18.60;45.90;;;;;;5074114;28;20054;-51
2022/01/10 07:04:14;;;;;;;1.73;1.13;;;18.60;45.90;;;;;;5095119;28;20055;-53
2022/01/10 07:06:42;;;;;;;2.72;2.00;;;18.60;45.90;;;;;;5072910;28;20164;-54
2022/01/10 07:09:17;;;;;;;3.75;2.03;;;18.60;45.90;;;;;;5068806;28;20113;-51
2022/01/10 07:11:59;;;;;;;2.78;2.58;;;18.60;45.90;;;;;;5071047;28;20123;-52
2022/01/10 07:14:29;;;;;;;2.90;2.47;;;18.60;45.90;;;;;;5073295;28;20072;-52
2022/01/10 07:16:58;;;;;;;2.13;1.30;;;18.60;45.90;;;;;;5070895;28;20040;-52
2022/01/10 07:19:26;;;;;;;2.35;1.80;;;18.60;45.90;;;;;;5073053;28;20044;-50
2022/01/10 07:21:54;;;;;;;2.03;1.45;;;18.60;45.90;;;;;;5073349;28;20377;-52
2022/01/10 07:24:24;;;;;;;3.00;1.95;;;18.60;45.90;;;;;;5073103;28;20036;-51
2022/01/10 07:26:51;;;;;;;2.53;1.67;;;18.60;45.90;;;;;;5086652;28;20048;-47
2022/01/10 07:29:18;;;;;;;2.92;2.13;;;18.60;45.90;;;;;;5085742;28;20040;-51
2022/01/10 07:31:45;;;;;;;5.45;1.65;;;18.60;45.90;;;;;;5088709;28;20380;-50
2022/01/10 07:34:15;;;;;;;2.30;1.23;;;18.60;45.80;;;;;;5086751;28;20047;-50
2022/01/10 07:36:43;;;;;;;3.05;1.77;;;18.60;45.90;;;;;;5086120;28;20123;-50
2022/01/10 07:39:11;;;;;;;2.72;1.05;;;18.60;45.90;;;;;;5084889;28;20046;-53
2022/01/10 07:41:40;;;;;;;1.60;1.42;;;18.60;45.90;;;;;;5084476;28;20056;-51
2022/01/10 07:44:12;;;;;;;1.48;1.38;;;18.60;45.80;;;;;;5068637;28;20047;-50
2022/01/10 07:46:40;;;;;;;3.63;1.85;;;18.60;45.90;;;;;;5087873;28;20047;-51
2022/01/10 07:49:07;;;;;;;1.42;1.33;;;18.60;45.80;;;;;;5086148;28;20605;-50
2022/01/10 07:51:34;;;;;;;2.30;1.23;;;18.60;46.40;;;;;;5085761;28;20130;-51
2022/01/10 07:54:01;;;;;;;2.95;1.23;;;18.60;45.80;;;;;;5086311;28;20036;-49
2022/01/10 07:56:28;;;;;;;1.85;1.00;;;18.60;45.80;;;;;;5086404;28;20048;-54
2022/01/10 07:58:56;;;;;;;2.28;1.08;;;18.60;45.80;;;;;;5086154;28;20044;-50
2022/01/10 08:01:24;;;;;;;2.58;1.77;;;18.60;45.80;;;;;;5086466;28;20475;-51
2022/01/10 08:03:52;;;;;;;2.63;1.70;;;18.60;45.80;;;;;;5085846;28;20578;-51
2022/01/10 08:06:19;;;;;;;1.70;1.35;;;18.60;45.80;;;;;;5085856;28;20032;-51
2022/01/10 08:08:46;;;;;;;2.22;1.40;;;18.60;45.80;;;;;;5085909;28;20050;-51
2022/01/10 08:11:13;;;;;;;4.25;1.35;;;18.60;45.80;;;;;;5086367;28;20443;-48
2022/01/10 08:13:41;;;;;;;2.13;1.30;;;18.60;45.80;;;;;;5087633;28;20052;-48
2022/01/10 08:16:09;;;;;;;1.00;0.70;;;18.60;45.70;;;;;;5085686;28;20136;-47
2022/01/10 08:18:36;;;;;;;1.50;0.85;;;18.60;45.80;;;;;;5085714;28;20127;-48
2022/01/10 08:21:06;;;;;;;0.98;0.82;;;18.60;45.70;;;;;;5089452;28;20056;-48
2022/01/10 08:23:33;;;;;;;2.30;1.10;;;18.60;45.70;;;;;;5085724;28;20040;-45
2022/01/10 08:26:00;;;;;;;1.35;1.10;;;18.60;45.70;;;;;;5085787;28;20481;-56
2022/01/10 08:28:27;;;;;;;1.08;0.93;;;18.60;45.70;;;;;;5087203;28;20497;-52
2022/01/10 08:30:54;;;;;;;1.48;0.80;;;18.60;45.70;;;;;;5084764;28;20881;-51
2022/01/10 08:33:22;;;;;;;0.70;0.70;;;18.60;45.70;;;;;;5084999;28;20039;-53
2022/01/10 08:35:51;;;;;;;0.70;0.70;;;18.60;45.70;;;;;;5085242;28;20047;-57
2022/01/10 08:38:18;;;;;;;1.23;0.68;;;18.60;45.70;;;;;;5085812;28;20484;-53
2022/01/10 08:40:45;;;;;;;2.65;1.35;;;18.60;45.60;;;;;;5086660;28;20192;-50
2022/01/10 08:43:13;;;;;;;1.15;0.65;;;18.60;45.60;;;;;;5083953;28;20144;-49
2022/01/10 08:45:40;;;;;;;1.13;0.85;;;18.60;45.60;;;;;;5084654;28;20044;-52
2022/01/10 08:48:08;;;;;;;0.98;0.93;;;18.60;45.60;;;;;;5084127;28;20388;-53
2022/01/10 08:50:36;;;;;;;2.00;0.73;;;18.60;46.20;;;;;;5084919;28;20097;-53
2022/01/10 08:53:05;;;;;;;2.97;1.23;;;18.60;45.60;;;;;;5085387;28;20036;-51
2022/01/10 08:55:32;;;;;;;2.92;0.93;;;18.60;45.60;;;;;;5084967;28;20078;-49
2022/01/10 08:58:00;;;;;;;2.13;1.42;;;18.60;45.60;;;;;;5084869;28;20048;-50
2022/01/10 09:00:27;;;;;;;1.20;0.73;;;18.60;45.60;;;;;;5084924;28;20089;-53
2022/01/10 09:02:54;;;;;;;2.80;1.58;;;18.60;45.60;;;;;;5067526;28;20572;-48
2022/01/10 09:05:21;;;;;;;1.15;0.80;;;18.60;45.50;;;;;;5085031;28;20517;-52
2022/01/10 09:07:51;;;;;;;1.38;0.77;;;18.60;45.60;;;;;;5086103;28;20047;-51
2022/01/10 09:10:19;;;;;;;1.70;1.02;;;18.60;45.60;;;;;;5085993;28;20036;-51
2022/01/10 09:12:46;;;;;;;2.75;0.85;;;18.60;45.50;;;;;;5084849;28;20060;-51
2022/01/10 09:15:14;;;;;;;2.00;1.02;;;18.60;45.50;;;;;;5084877;28;20043;-48
2022/01/10 09:17:43;;;;;;;1.15;0.90;;;18.60;45.50;;;;;;5083006;28;20500;-48
2022/01/10 09:20:11;;;;;;;1.13;1.02;;;18.60;45.50;;;;;;5084627;28;20052;-50
2022/01/10 09:22:38;;;;;;;2.42;0.47;;;18.60;45.50;;;;;;5089197;28;20476;-47
2022/01/10 09:25:08;;;;;;;0.90;0.80;;;18.60;45.50;;;;;;5085164;28;20048;-47
2022/01/10 09:27:35;;;;;;;1.98;0.88;;;18.60;45.50;;;;;;5082424;28;20051;-52
2022/01/10 09:30:02;;;;;;;2.05;0.82;;;18.50;45.40;;;;;;5084477;28;20040;-53
2022/01/10 09:32:29;;;;;;;1.05;0.77;;;18.50;45.40;;;;;;5084347;28;20048;-51
2022/01/10 09:34:56;;;;;;;1.15;0.77;;;18.50;45.40;;;;;;5084672;28;20048;-48
2022/01/10 09:37:25;;;;;;;1.05;0.80;;;18.50;45.40;;;;;;5086029;28;20523;-47
2022/01/10 09:39:52;;;;;;;1.95;0.70;;;18.60;45.50;;;;;;5071129;28;20551;-49
2022/01/10 09:42:20;;;;;;;1.38;0.68;;;18.50;45.40;;;;;;5086419;28;20032;-48
2022/01/10 09:44:47;;;;;;;2.22;1.15;;;18.60;45.50;;;;;;5088708;28;20106;-47
2022/01/10 09:47:15;;;;;;;1.80;1.35;;;18.60;45.40;;;;;;5087710;28;20039;-49
2022/01/10 09:49:42;;;;;;;1.85;0.85;;;18.50;45.30;;;;;;5090051;28;20044;-48
2022/01/10 09:52:09;;;;;;;3.03;0.85;;;18.60;45.40;;;;;;5088467;28;20702;-53
2022/01/10 09:54:36;;;;;;;2.65;0.85;;;18.60;45.30;;;;;;5088373;28;20051;-48
2022/01/10 09:57:04;;;;;;;1.15;0.85;;;18.60;45.40;;;;;;5088613;28;20032;-48
2022/01/10 09:59:33;;;;;;;1.92;1.70;;;18.60;45.40;;;;;;5088323;28;20105;-50
2022/01/10 10:02:00;;;;;;;1.30;0.80;;;18.50;45.30;;;;;;5088279;28;20068;-49
2022/01/10 10:04:27;;;;;;;1.30;0.63;;;18.50;45.30;;;;;;5089998;28;20401;-53
2022/01/10 10:06:55;;;;;;;1.73;0.60;;;18.60;45.30;;;;;;5088201;28;20036;-51
2022/01/10 10:09:23;;;;;;;1.55;0.93;;;18.60;45.40;;;;;;5085877;28;20119;-54
2022/01/10 10:11:52;;;;;;;2.80;1.10;;;18.60;45.30;;;;;;5088475;28;20036;-50
2022/01/10 10:14:22;;;;;;;1.90;0.93;;;18.60;45.40;;;;;;5083903;28;20102;-52
2022/01/10 10:16:52;;;;;;;1.02;0.80;;;18.60;45.40;;;;;;5088955;28;20831;-50
2022/01/10 10:19:21;;;;;;;2.35;1.23;;;18.50;45.30;;;;;;5088201;28;20094;-51
2022/01/10 10:21:49;;;;;;;1.40;1.10;;;18.50;45.30;;;;;;5087985;28;20060;-50
2022/01/10 10:24:17;;;;;;;4.35;1.27;;;18.50;45.30;;;;;;5087160;28;20076;-49
2022/01/10 10:26:44;;;;;;;2.05;1.05;;;18.50;45.30;;;;;;5087724;28;20040;-52
2022/01/10 10:29:16;;;;;;;4.15;1.48;;;18.60;45.40;;;;;;5089515;28;20431;-54
2022/01/10 10:31:46;;;;;;;3.20;1.00;;;18.50;45.20;;;;;;5086003;28;20217;-49
2022/01/10 10:34:19;;;;;;;2.83;1.08;;;18.50;45.30;;;;;;5086563;28;20052;-47
2022/01/10 10:36:58;;;;;;;2.88;1.27;;;18.60;45.30;;;;;;5086756;28;20055;-49
2022/01/10 10:39:26;;;;;;;3.92;2.13;;;18.50;45.30;;;;;;5086871;28;20047;-46
2022/01/10 10:41:55;;;;;;;3.75;1.77;;;18.60;45.40;;;;;;5087296;28;20040;-49
2022/01/10 10:44:23;;;;;;;2.90;0.73;;;18.60;45.30;;;;;;5087129;28;20558;-52
2022/01/10 10:46:51;;;;;;;3.00;1.42;;;18.50;45.30;;;;;;5088531;28;20040;-53
2022/01/10 10:49:22;;;;;;;2.58;1.05;;;18.50;45.90;;;;;;5088214;28;20037;-47
2022/01/10 10:51:50;;;;;;;2.80;1.58;;;18.60;45.40;;;;;;5073483;28;20098;-51
2022/01/10 10:54:18;;;;;;;1.52;1.10;;;18.50;45.30;;;;;;5087266;28;20044;-49
2022/01/10 10:56:46;;;;;;;2.78;1.33;;;18.50;45.30;;;;;;5087561;28;20040;-50
2022/01/10 10:59:14;;;;;;;2.60;1.17;;;18.60;45.40;;;;;;5086975;28;20044;-49
2022/01/10 11:01:42;;;;;;;2.47;1.48;;;18.60;45.40;;;;;;5089027;28;20119;-49
2022/01/10 11:04:11;;;;;;;4.88;2.67;;;18.60;45.40;;;;;;5089250;28;20358;-53
2022/01/10 11:06:41;;;;;;;3.13;1.15;;;18.60;45.40;;;;;;5086936;28;20764;-48
2022/01/10 11:09:12;;;;;;;3.30;1.58;;;18.50;45.30;;;;;;5080276;28;20039;-51
2022/01/10 11:11:40;;;;;;;3.88;2.20;;;18.60;45.40;;;;;;5081205;28;20052;-52
2022/01/10 11:14:09;;;;;;;2.78;1.83;;;18.60;45.40;;;;;;5086890;28;20863;-48
2022/01/10 11:16:37;;;;;;;3.08;1.60;;;18.60;45.40;;;;;;5088784;28;20044;-49
2022/01/10 11:19:12;;;;;;;3.15;1.48;;;18.60;45.40;;;;;;5090309;28;20393;-51
2022/01/10 11:21:41;;;;;;;2.60;1.85;;;18.60;45.30;;;;;;5089469;28;20138;-53
2022/01/10 11:24:09;;;;;;;4.18;2.47;;;18.60;45.40;;;;;;5086657;28;20115;-47
2022/01/10 11:26:38;;;;;;;5.85;2.15;;;18.60;45.30;;;;;;5088770;28;20064;-48
2022/01/10 11:29:08;;;;;;;2.65;1.48;;;18.60;45.30;;;;;;5086584;28;20038;-49
2022/01/10 11:31:37;;;;;;;7.05;2.78;;;18.60;45.30;;;;;;5088589;28;20062;-49
2022/01/10 11:34:04;;;;;;;2.85;1.95;;;18.60;45.30;;;;;;5086287;28;20603;-47
2022/01/10 11:36:32;;;;;;;6.43;1.98;;;18.60;45.30;;;;;;5086518;28;20055;-48
2022/01/10 11:39:08;;;;;;;5.10;3.50;;;18.60;45.30;;;;;;5086476;28;20037;-52
2022/01/10 11:41:35;;;;;;;;;;;18.60;45.30;;;;;;5086981;28;20119;-46
2022/01/10 11:44:07;;;;;;;4.57;2.45;;;18.50;45.20;;;;;;5085968;28;20020;-51
2022/01/10 11:46:37;;;;;;;3.75;2.05;;;18.60;45.40;;;;;;5088218;28;20043;-48
2022/01/10 11:49:16;;;;;;;3.67;1.80;;;18.50;45.40;;;;;;5086008;28;20566;-47
2022/01/10 11:51:45;;;;;;;5.85;1.88;;;18.60;45.40;;;;;;5086135;28;20058;-47
2022/01/10 11:54:17;;;;;;;3.72;2.17;;;18.60;45.40;;;;;;5086109;28;20468;-48
2022/01/10 11:56:46;;;;;;;5.00;2.88;;;18.60;45.30;;;;;;5085818;28;20067;-49
2022/01/10 11:59:19;;;;;;;4.40;2.03;;;18.60;45.40;;;;;;5085857;28;20043;-47
2022/01/10 12:01:49;;;;;;;3.75;2.42;;;18.60;45.30;;;;;;5055921;28;20040;-46
2022/01/10 12:04:16;;;;;;;4.90;1.98;;;18.60;45.40;;;;;;5085094;28;20044;-51
2022/01/10 12:06:43;;;;;;;3.63;1.60;;;18.60;45.30;;;;;;5083488;28;20036;-47
2022/01/10 12:09:11;;;;;;;3.55;2.00;;;18.60;45.30;;;;;;5085792;28;20079;-46
2022/01/10 12:11:40;;;;;;;4.55;2.92;;;18.60;45.20;;;;;;5083843;28;20044;-51
2022/01/10 12:14:10;;;;;;;4.53;1.17;;;18.60;45.20;;;;;;5085789;28;20047;-45
2022/01/10 12:16:38;;;;;;;3.88;2.05;;;18.60;45.30;;;;;;5087333;28;20040;-47
2022/01/10 12:19:06;;;;;;;4.35;1.95;;;18.60;45.30;;;;;;5085555;28;20040;-49
2022/01/10 12:21:34;;;;;;;6.65;2.00;;;18.60;45.30;;;;;;5085509;28;20098;-54
2022/01/10 12:24:01;;;;;;;2.97;1.88;;;18.60;45.30;;;;;;5085368;28;20125;-50
2022/01/10 12:26:29;;;;;;;2.70;1.83;;;18.60;45.20;;;;;;5085625;28;20074;-51
2022/01/10 12:28:59;;;;;;;3.67;1.25;;;18.60;45.20;;;;;;5085884;28;20036;-53
2022/01/10 12:31:27;;;;;;;3.85;1.70;;;18.60;45.30;;;;;;5087051;28;20040;-53
2022/01/10 12:33:56;;;;;;;1.90;1.58;;;18.60;45.20;;;;;;5086027;28;20051;-50
2022/01/10 12:36:25;;;;;;;6.13;2.53;;;18.60;45.20;;;;;;5085109;28;20382;-53
2022/01/10 12:38:53;;;;;;;2.63;1.95;;;18.60;45.20;;;;;;5085240;28;20127;-51
2022/01/10 12:41:21;;;;;;;2.88;1.92;;;18.60;45.20;;;;;;5085069;28;20098;-51
2022/01/10 12:43:49;;;;;;;3.10;1.35;;;18.60;45.20;;;;;;5086679;28;20440;-50
2022/01/10 12:46:19;;;;;;;3.75;1.83;;;18.60;45.10;;;;;;5085942;28;20044;-48
2022/01/10 12:48:50;;;;;;;3.85;1.38;;;18.60;45.10;;;;;;5074474;28;20044;-54
2022/01/10 12:51:19;;;;;;;3.10;1.63;;;18.60;45.20;;;;;;5084924;28;20046;-51
2022/01/10 12:53:48;;;;;;;4.53;1.48;;;18.60;45.10;;;;;;5085085;28;20040;-47
2022/01/10 12:56:17;;;;;;;2.60;1.40;;;18.60;45.20;;;;;;5084854;28;20066;-48
2022/01/10 12:58:44;;;;;;;2.80;1.52;;;18.60;45.20;;;;;;5074498;28;20040;-51
2022/01/10 13:01:13;;;;;;;5.65;1.83;;;18.60;45.10;;;;;;5084831;28;20086;-52
2022/01/10 13:03:47;;;;;;;4.43;1.35;;;18.60;45.20;;;;;;5084772;28;20047;-51